sensor_id;sensor_type;location;lat;lon;timestamp;pressure;altitude;pressure_sealevel;temperature;humidity
19811;BME280;10065;49.632;8.346;2024-02-15T08:16:01;100953.25;;;12.33;90.52
19811;BME280;10065;49.632;8.346;2024-02-15T08:19:29;100961.31;;;12.41;89.98
19811;BME280;10065;49.632;8.346;2024-02-15T08:22:15;100950.78;;;12.50;89.09
19811;BME280;10065;49.632;8.346;2024-02-15T08:25:09;100949.94;;;12.49;88.39
19811;BME280;10065;49.632;8.346;2024-02-15T08:36:18;100951.66;;;12.86;85.54
19811;BME280;10065;49.632;8.346;2024-02-15T08:39:52;100947.09;;;12.96;84.75
19811;BME280;10065;49.632;8.346;2024-02-15T08:42:57;100948.72;;;13.06;83.80
19811;BME280;10065;49.632;8.346;2024-02-15T08:45:45;100942.09;;;13.10;83.34
19811;BME280;10065;49.632;8.346;2024-02-15T08:48:36;100938.28;;;13.13;82.95
19811;BME280;10065;49.632;8.346;2024-02-15T08:51:15;100924.56;;;13.17;82.85
19811;BME280;10065;49.632;8.346;2024-02-15T08:54:10;100923.00;;;13.33;82.68
19811;BME280;10065;49.632;8.346;2024-02-15T08:57:12;100923.06;;;13.41;82.13
19811;BME280;10065;49.632;8.346;2024-02-15T09:10:09;100923.28;;;13.73;79.85
19811;BME280;10065;49.632;8.346;2024-02-15T09:12:57;100915.88;;;13.93;79.17
19811;BME280;10065;49.632;8.346;2024-02-15T09:15:35;100911.81;;;14.07;78.93
19811;BME280;10065;49.632;8.346;2024-02-15T09:18:35;100920.63;;;14.41;77.79
19811;BME280;10065;49.632;8.346;2024-02-15T09:21:48;100920.75;;;15.14;74.15
19811;BME280;10065;49.632;8.346;2024-02-15T09:24:47;100908.22;;;15.63;72.90
19811;BME280;10065;49.632;8.346;2024-02-15T09:27:42;100913.47;;;15.96;69.96
19811;BME280;10065;49.632;8.346;2024-02-15T09:30:56;100915.06;;;16.52;68.36
19811;BME280;10065;49.632;8.346;2024-02-15T09:34:06;100914.53;;;16.56;67.51
19811;BME280;10065;49.632;8.346;2024-02-15T09:36:46;100910.50;;;16.30;66.76
19811;BME280;10065;49.632;8.346;2024-02-15T09:39:36;100901.53;;;16.14;67.58
19811;BME280;10065;49.632;8.346;2024-02-15T09:42:36;100899.88;;;16.13;68.13
19811;BME280;10065;49.632;8.346;2024-02-15T09:52:45;100890.00;;;16.76;65.58
19811;BME280;10065;49.632;8.346;2024-02-15T09:58:55;100880.34;;;16.89;64.93
19811;BME280;10065;49.632;8.346;2024-02-15T10:01:39;100887.09;;;16.85;64.31
19811;BME280;10065;49.632;8.346;2024-02-15T10:04:42;100883.81;;;16.75;65.27
19811;BME280;10065;49.632;8.346;2024-02-15T10:07:29;100886.44;;;16.83;65.03
19811;BME280;10065;49.632;8.346;2024-02-15T10:10:18;100883.41;;;17.24;63.44
19811;BME280;10065;49.632;8.346;2024-02-15T10:13:16;100877.09;;;17.40;62.08
19811;BME280;10065;49.632;8.346;2024-02-15T10:16:27;100878.63;;;17.34;62.59
19811;BME280;10065;49.632;8.346;2024-02-15T10:19:25;100880.72;;;17.09;63.30
19811;BME280;10065;49.632;8.346;2024-02-15T10:25:52;100885.34;;;16.39;65.63
19811;BME280;10065;49.632;8.346;2024-02-15T10:32:07;100889.28;;;15.81;68.36
19811;BME280;10065;49.632;8.346;2024-02-15T10:39:13;100872.59;;;15.71;69.45
19811;BME280;10065;49.632;8.346;2024-02-15T10:42:32;100873.53;;;15.94;69.03
19811;BME280;10065;49.632;8.346;2024-02-15T10:49:01;100867.69;;;17.06;65.69
19811;BME280;10065;49.632;8.346;2024-02-15T10:55:33;100850.66;;;20.00;56.36
19811;BME280;10065;49.632;8.346;2024-02-15T11:55:02;100780.03;;;17.59;60.44
19811;BME280;10065;49.632;8.346;2024-02-15T11:58:33;100759.78;;;17.71;59.80
19811;BME280;10065;49.632;8.346;2024-02-15T12:01:59;100780.41;;;17.71;59.73
19811;BME280;10065;49.632;8.346;2024-02-15T12:05:50;100760.44;;;17.73;59.32
19811;BME280;10065;49.632;8.346;2024-02-15T12:16:27;100748.22;;;17.71;57.37
19811;BME280;10065;49.632;8.346;2024-02-15T12:19:31;100741.38;;;17.53;57.73
19811;BME280;10065;49.632;8.346;2024-02-15T12:22:59;100741.22;;;17.40;58.51
19811;BME280;10065;49.632;8.346;2024-02-15T12:26:12;100739.16;;;17.42;59.23
19811;BME280;10065;49.632;8.346;2024-02-15T12:46:49;100721.13;;;16.77;60.76
19811;BME280;10065;49.632;8.346;2024-02-15T12:49:53;100714.84;;;16.70;61.16
19811;BME280;10065;49.632;8.346;2024-02-15T12:53:25;100715.53;;;16.64;61.37
19811;BME280;10065;49.632;8.346;2024-02-15T13:00:06;100720.50;;;16.52;62.06
19811;BME280;10065;49.632;8.346;2024-02-15T14:03:05;100640.22;;;16.30;64.66
19811;BME280;10065;49.632;8.346;2024-02-15T14:05:33;100638.38;;;16.30;64.72
19811;BME280;10065;49.632;8.346;2024-02-15T14:08:03;100634.50;;;16.33;64.35
19811;BME280;10065;49.632;8.346;2024-02-15T14:10:33;100627.13;;;16.35;64.43
19811;BME280;10065;49.632;8.346;2024-02-15T14:13:03;100629.44;;;16.38;64.20
19811;BME280;10065;49.632;8.346;2024-02-15T14:15:33;100619.56;;;16.38;64.41
19811;BME280;10065;49.632;8.346;2024-02-15T14:18:06;100624.91;;;16.38;64.29
19811;BME280;10065;49.632;8.346;2024-02-15T14:20:37;100614.78;;;16.34;64.07
19811;BME280;10065;49.632;8.346;2024-02-15T14:23:07;100608.75;;;16.32;64.43
19811;BME280;10065;49.632;8.346;2024-02-15T14:25:41;100614.13;;;16.32;64.32
19811;BME280;10065;49.632;8.346;2024-02-15T14:28:09;100609.78;;;16.31;64.31
19811;BME280;10065;49.632;8.346;2024-02-15T14:30:39;100612.81;;;16.28;64.67
19811;BME280;10065;49.632;8.346;2024-02-15T14:33:27;100605.16;;;16.25;65.10
19811;BME280;10065;49.632;8.346;2024-02-15T14:36:10;100606.16;;;16.24;64.97
19811;BME280;10065;49.632;8.346;2024-02-15T14:38:38;100594.81;;;16.22;64.79
19811;BME280;10065;49.632;8.346;2024-02-15T14:41:06;100599.50;;;16.19;64.58
19811;BME280;10065;49.632;8.346;2024-02-15T14:43:40;100596.38;;;16.16;64.86
19811;BME280;10065;49.632;8.346;2024-02-15T14:46:08;100593.88;;;16.14;65.03
19811;BME280;10065;49.632;8.346;2024-02-15T14:48:38;100583.00;;;16.16;65.15
19811;BME280;10065;49.632;8.346;2024-02-15T14:51:08;100581.78;;;16.18;65.80
19811;BME280;10065;49.632;8.346;2024-02-15T14:53:49;100590.47;;;16.21;65.44
19811;BME280;10065;49.632;8.346;2024-02-15T14:57:37;100576.44;;;16.18;64.86
19811;BME280;10065;49.632;8.346;2024-02-15T15:01:11;100567.78;;;16.16;64.81
19811;BME280;10065;49.632;8.346;2024-02-15T15:46:42;100533.59;;;15.89;66.15
19811;BME280;10065;49.632;8.346;2024-02-15T15:49:11;100540.13;;;15.87;66.85
19811;BME280;10065;49.632;8.346;2024-02-15T15:52:07;100542.13;;;15.85;67.36
19811;BME280;10065;49.632;8.346;2024-02-15T15:54:44;100528.31;;;15.81;67.08
19811;BME280;10065;49.632;8.346;2024-02-15T15:57:17;100535.84;;;15.77;67.08
19811;BME280;10065;49.632;8.346;2024-02-15T15:59:56;100527.38;;;15.74;67.10
19811;BME280;10065;49.632;8.346;2024-02-15T16:02:47;100527.91;;;15.69;67.40
19811;BME280;10065;49.632;8.346;2024-02-15T16:05:19;100529.09;;;15.67;67.24
19811;BME280;10065;49.632;8.346;2024-02-15T16:08:05;100529.47;;;15.64;66.80
19811;BME280;10065;49.632;8.346;2024-02-15T16:11:05;100530.66;;;15.61;66.63
19811;BME280;10065;49.632;8.346;2024-02-15T16:14:12;100528.69;;;15.55;67.32
19811;BME280;10065;49.632;8.346;2024-02-15T16:16:49;100528.19;;;15.52;67.87
19811;BME280;10065;49.632;8.346;2024-02-15T16:20:06;100528.53;;;15.49;67.54
19811;BME280;10065;49.632;8.346;2024-02-15T16:23:28;100529.91;;;15.44;68.25
19811;BME280;10065;49.632;8.346;2024-02-15T16:26:24;100523.25;;;15.40;68.29
19811;BME280;10065;49.632;8.346;2024-02-15T16:29:20;100520.94;;;15.37;68.61
19811;BME280;10065;49.632;8.346;2024-02-15T16:32:20;100519.63;;;15.33;68.42
19811;BME280;10065;49.632;8.346;2024-02-15T16:52:41;100511.72;;;15.17;70.32
19811;BME280;10065;49.632;8.346;2024-02-15T16:55:34;100510.41;;;15.13;70.08
19811;BME280;10065;49.632;8.346;2024-02-15T16:58:51;100514.75;;;15.14;69.35
19811;BME280;10065;49.632;8.346;2024-02-15T17:01:41;100514.13;;;15.12;68.72
19811;BME280;10065;49.632;8.346;2024-02-15T17:05:10;100517.78;;;15.11;69.78
19811;BME280;10065;49.632;8.346;2024-02-15T17:50:29;100515.50;;;15.00;72.11
19811;BME280;10065;49.632;8.346;2024-02-15T17:52:58;100516.50;;;14.99;72.36
19811;BME280;10065;49.632;8.346;2024-02-15T17:55:33;100511.81;;;15.01;71.79
19811;BME280;10065;49.632;8.346;2024-02-15T17:58:01;100517.16;;;15.01;71.84
19811;BME280;10065;49.632;8.346;2024-02-15T18:00:30;100504.81;;;15.00;72.21
19811;BME280;10065;49.632;8.346;2024-02-15T18:03:03;100511.34;;;14.97;72.57
19811;BME280;10065;49.632;8.346;2024-02-15T18:05:36;100513.34;;;14.95;72.76
19811;BME280;10065;49.632;8.346;2024-02-15T18:08:06;100509.88;;;14.95;72.68
19811;BME280;10065;49.632;8.346;2024-02-15T18:10:35;100498.88;;;14.90;72.70
19811;BME280;10065;49.632;8.346;2024-02-15T18:13:03;100494.91;;;14.86;72.74
19811;BME280;10065;49.632;8.346;2024-02-15T18:15:32;100490.56;;;14.85;73.00
19811;BME280;10065;49.632;8.346;2024-02-15T18:18:09;100483.91;;;14.81;72.62
19811;BME280;10065;49.632;8.346;2024-02-15T18:20:39;100477.25;;;14.77;72.93
19811;BME280;10065;49.632;8.346;2024-02-15T18:23:11;100479.28;;;14.75;72.41
19811;BME280;10065;49.632;8.346;2024-02-15T18:25:40;100475.94;;;14.73;71.73
19811;BME280;10065;49.632;8.346;2024-02-15T18:28:08;100471.44;;;14.73;70.76
19811;BME280;10065;49.632;8.346;2024-02-15T18:30:39;100463.72;;;14.78;71.19
19811;BME280;10065;49.632;8.346;2024-02-15T18:33:14;100466.88;;;14.82;71.61
19811;BME280;10065;49.632;8.346;2024-02-15T18:35:45;100457.88;;;14.83;71.87
19811;BME280;10065;49.632;8.346;2024-02-15T18:38:14;100456.19;;;14.82;72.41
19811;BME280;10065;49.632;8.346;2024-02-15T18:40:42;100457.19;;;14.81;72.93
19811;BME280;10065;49.632;8.346;2024-02-15T18:43:11;100442.34;;;14.78;72.91
19811;BME280;10065;49.632;8.346;2024-02-15T18:45:41;100442.56;;;14.77;73.30
19811;BME280;10065;49.632;8.346;2024-02-15T18:48:10;100449.75;;;14.76;73.23
19811;BME280;10065;49.632;8.346;2024-02-15T18:50:38;100448.25;;;14.74;73.11
19811;BME280;10065;49.632;8.346;2024-02-15T18:53:07;100444.91;;;14.72;73.35
19811;BME280;10065;49.632;8.346;2024-02-15T18:55:39;100438.06;;;14.69;73.72
19811;BME280;10065;49.632;8.346;2024-02-15T18:58:08;100435.59;;;14.67;73.76
19811;BME280;10065;49.632;8.346;2024-02-15T19:00:36;100427.94;;;14.64;73.56
19811;BME280;10065;49.632;8.346;2024-02-15T19:03:21;100434.16;;;14.57;74.42
19811;BME280;10065;49.632;8.346;2024-02-15T19:05:50;100433.31;;;14.56;74.38
19811;BME280;10065;49.632;8.346;2024-02-15T19:08:19;100436.31;;;14.53;74.24
19811;BME280;10065;49.632;8.346;2024-02-15T19:10:48;100428.88;;;14.49;74.71
19811;BME280;10065;49.632;8.346;2024-02-15T19:13:16;100434.03;;;14.50;74.25
19811;BME280;10065;49.632;8.346;2024-02-15T19:15:45;100435.88;;;14.50;74.16
19811;BME280;10065;49.632;8.346;2024-02-15T19:18:16;100424.19;;;14.51;74.34
19811;BME280;10065;49.632;8.346;2024-02-15T19:20:44;100418.84;;;14.51;74.37
19811;BME280;10065;49.632;8.346;2024-02-15T19:23:12;100423.34;;;14.50;74.82
19811;BME280;10065;49.632;8.346;2024-02-15T19:25:42;100429.53;;;14.51;74.65
19811;BME280;10065;49.632;8.346;2024-02-15T19:28:12;100432.38;;;14.49;74.63
19811;BME280;10065;49.632;8.346;2024-02-15T19:30:40;100423.69;;;14.47;75.01
19811;BME280;10065;49.632;8.346;2024-02-15T19:33:09;100420.72;;;14.42;74.90
19811;BME280;10065;49.632;8.346;2024-02-15T19:35:39;100416.03;;;14.36;75.57
19811;BME280;10065;49.632;8.346;2024-02-15T19:38:08;100417.25;;;14.34;75.32
19811;BME280;10065;49.632;8.346;2024-02-15T19:40:36;100411.91;;;14.25;75.82
19811;BME280;10065;49.632;8.346;2024-02-15T19:43:10;100415.78;;;14.23;76.22
19811;BME280;10065;49.632;8.346;2024-02-15T19:45:40;100412.94;;;14.24;76.25
19811;BME280;10065;49.632;8.346;2024-02-15T19:48:12;100408.41;;;14.25;76.35
19811;BME280;10065;49.632;8.346;2024-02-15T19:50:41;100408.06;;;14.28;75.84
19811;BME280;10065;49.632;8.346;2024-02-15T19:53:08;100414.75;;;14.32;75.86
19811;BME280;10065;49.632;8.346;2024-02-15T19:55:36;100413.75;;;14.33;75.72
19811;BME280;10065;49.632;8.346;2024-02-15T19:58:05;100411.06;;;14.33;75.56
19811;BME280;10065;49.632;8.346;2024-02-15T20:00:34;100412.72;;;14.34;75.23
19811;BME280;10065;49.632;8.346;2024-02-15T20:03:04;100420.06;;;14.32;75.73
19811;BME280;10065;49.632;8.346;2024-02-15T20:05:32;100412.41;;;14.29;75.59
19811;BME280;10065;49.632;8.346;2024-02-15T20:08:00;100404.75;;;14.26;76.06
19811;BME280;10065;49.632;8.346;2024-02-15T20:10:29;100408.63;;;14.23;75.86
19811;BME280;10065;49.632;8.346;2024-02-15T20:12:57;100404.47;;;14.13;76.49
19811;BME280;10065;49.632;8.346;2024-02-15T20:15:26;100411.31;;;14.07;76.91
19811;BME280;10065;49.632;8.346;2024-02-15T20:17:58;100410.16;;;14.10;76.91
19811;BME280;10065;49.632;8.346;2024-02-15T20:20:27;100398.47;;;14.11;76.54
19811;BME280;10065;49.632;8.346;2024-02-15T20:23:01;100410.66;;;14.13;76.47
19811;BME280;10065;49.632;8.346;2024-02-15T20:26:33;100412.47;;;14.13;76.78
19811;BME280;10065;49.632;8.346;2024-02-15T20:30:13;100415.47;;;14.10;76.63
